createdAt,value
2022-08-26T00:00:21.671Z,9.18
2022-08-26T00:02:50.346Z,9.30
2022-08-26T00:05:19.111Z,9.35
2022-08-26T00:07:48.431Z,9.77
2022-08-26T00:10:17.456Z,9.35
2022-08-26T00:12:46.184Z,9.05
2022-08-26T00:15:16.481Z,9.60
2022-08-26T00:17:46.534Z,9.80
2022-08-26T00:20:18.816Z,9.55
2022-08-26T00:22:47.284Z,9.10
2022-08-26T00:25:17.303Z,9.57
2022-08-26T00:27:45.872Z,9.45
2022-08-26T00:30:17.064Z,9.75
2022-08-26T00:32:52.687Z,10.57
2022-08-26T00:35:22.732Z,10.07
2022-08-26T00:37:52.026Z,9.95
2022-08-26T00:40:25.489Z,9.98
2022-08-26T00:42:54.062Z,10.07
2022-08-26T00:45:23.096Z,10.30
2022-08-26T00:47:55.762Z,10.25
2022-08-26T00:50:27.816Z,9.50
2022-08-26T00:52:57.015Z,9.80
2022-08-26T00:55:37.827Z,9.30
2022-08-26T00:58:06.801Z,9.77
2022-08-26T01:00:36.672Z,9.25
2022-08-26T01:03:07.603Z,9.25
2022-08-26T01:05:41.659Z,10.40
2022-08-26T01:08:10.154Z,9.63
2022-08-26T01:10:38.691Z,9.93
2022-08-26T01:13:11.007Z,9.35
2022-08-26T01:15:44.290Z,9.55
2022-08-26T01:18:14.818Z,9.30
2022-08-26T01:20:52.208Z,9.27
2022-08-26T01:23:30.338Z,9.25
2022-08-26T01:26:06.386Z,9.52
2022-08-26T01:28:35.985Z,8.98
2022-08-26T01:31:05.941Z,9.75
2022-08-26T01:33:42.096Z,9.90
2022-08-26T01:36:11.920Z,8.90
2022-08-26T01:38:42.100Z,9.30
2022-08-26T01:41:16.162Z,9.80
2022-08-26T01:43:49.187Z,9.73
2022-08-26T01:46:17.894Z,10.32
2022-08-26T01:48:47.874Z,9.88
2022-08-26T01:51:20.990Z,10.05
2022-08-26T01:53:50.863Z,10.40
2022-08-26T01:56:19.962Z,10.27
2022-08-26T01:58:52.282Z,11.13
2022-08-26T02:01:21.192Z,10.45
2022-08-26T02:03:55.435Z,9.82
2022-08-26T02:06:24.022Z,9.68
2022-08-26T02:08:57.752Z,9.38
2022-08-26T02:11:26.291Z,9.93
2022-08-26T02:13:57.831Z,11.02
2022-08-26T02:16:27.868Z,10.02
2022-08-26T02:18:57.931Z,9.75
2022-08-26T02:21:26.883Z,10.10
2022-08-26T02:23:57.195Z,9.85
2022-08-26T02:26:27.094Z,9.20
2022-08-26T02:29:00.040Z,9.80
2022-08-26T02:31:30.131Z,9.52
2022-08-26T02:34:10.745Z,9.50
2022-08-26T02:36:39.569Z,9.40
2022-08-26T02:39:09.863Z,9.70
2022-08-26T02:41:45.319Z,9.10
2022-08-26T02:44:14.057Z,10.15
2022-08-26T02:46:46.024Z,9.48
2022-08-26T02:49:17.022Z,9.20
2022-08-26T02:51:45.961Z,9.20
2022-08-26T02:54:15.846Z,9.70
2022-08-26T02:56:44.537Z,9.55
2022-08-26T02:59:13.644Z,9.05
2022-08-26T03:01:42.638Z,8.88
2022-08-26T03:04:13.300Z,9.40
2022-08-26T03:06:43.607Z,8.88
2022-08-26T03:09:22.523Z,8.85
2022-08-26T03:11:52.103Z,8.85
2022-08-26T03:14:20.994Z,8.68
2022-08-26T03:16:51.907Z,8.90
2022-08-26T03:19:20.452Z,8.88
2022-08-26T03:21:48.913Z,9.10
2022-08-26T03:24:17.724Z,8.50
2022-08-26T03:26:52.209Z,9.23
2022-08-26T03:29:38.910Z,8.70
2022-08-26T03:32:07.724Z,8.70
2022-08-26T03:34:37.278Z,9.18
2022-08-26T03:37:07.484Z,9.00
2022-08-26T03:39:37.003Z,8.80
2022-08-26T03:42:07.397Z,8.85
2022-08-26T03:44:36.182Z,9.50
2022-08-26T03:47:10.535Z,9.15
2022-08-26T03:49:38.995Z,9.27
2022-08-26T03:52:07.796Z,9.13
2022-08-26T03:54:36.234Z,9.07
2022-08-26T03:57:06.253Z,9.00
2022-08-26T03:59:34.723Z,8.20
2022-08-26T04:02:03.568Z,8.15
2022-08-26T04:04:39.933Z,8.50
2022-08-26T04:07:08.878Z,8.68
2022-08-26T04:09:37.298Z,8.35
2022-08-26T04:12:08.500Z,8.45
2022-08-26T04:14:37.769Z,8.95
2022-08-26T04:17:07.558Z,7.85
2022-08-26T04:19:36.154Z,7.65
2022-08-26T04:22:04.737Z,8.00
2022-08-26T04:24:33.333Z,7.97
2022-08-26T04:27:03.465Z,8.00
2022-08-26T04:29:33.428Z,7.32
2022-08-26T04:32:05.290Z,7.32
2022-08-26T04:34:34.293Z,6.82
2022-08-26T04:37:02.800Z,7.10
2022-08-26T04:39:31.264Z,6.72
2022-08-26T04:42:00.366Z,6.50
2022-08-26T04:44:32.219Z,6.43
2022-08-26T04:47:00.678Z,6.50
2022-08-26T04:49:35.062Z,7.20
2022-08-26T04:52:05.100Z,6.80
2022-08-26T04:54:33.698Z,6.65
2022-08-26T04:57:02.531Z,6.90
2022-08-26T04:59:34.973Z,6.38
2022-08-26T05:02:07.128Z,6.80
2022-08-26T05:04:36.189Z,6.20
2022-08-26T05:07:05.982Z,6.05
2022-08-26T05:09:34.940Z,6.03
2022-08-26T05:12:04.975Z,7.10
2022-08-26T05:14:34.826Z,6.47
2022-08-26T05:17:03.952Z,6.03
2022-08-26T05:19:33.319Z,6.57
2022-08-26T05:22:01.826Z,6.70
2022-08-26T05:24:31.303Z,6.40
2022-08-26T05:26:59.842Z,6.70
2022-08-26T05:29:28.419Z,6.28
2022-08-26T05:31:58.711Z,6.75
2022-08-26T05:34:30.071Z,6.50
2022-08-26T05:36:58.877Z,6.43
2022-08-26T05:39:27.348Z,6.07
2022-08-26T05:41:55.792Z,6.22
2022-08-26T05:44:24.774Z,6.20
2022-08-26T05:46:53.370Z,6.25
2022-08-26T05:49:26.363Z,6.10
2022-08-26T05:51:55.101Z,6.35
2022-08-26T05:54:23.529Z,7.13
2022-08-26T05:56:52.333Z,5.95
2022-08-26T05:59:23.966Z,6.57
2022-08-26T06:01:53.488Z,6.25
2022-08-26T06:04:27.511Z,6.50
2022-08-26T06:06:56.516Z,6.10
2022-08-26T06:09:25.114Z,6.20
2022-08-26T06:11:53.661Z,6.82
2022-08-26T06:14:23.182Z,5.95
2022-08-26T06:16:51.686Z,5.97
2022-08-26T06:19:21.661Z,5.65
2022-08-26T06:21:54.246Z,6.32
2022-08-26T06:24:41.539Z,6.55
2022-08-26T06:27:13.847Z,6.22
2022-08-26T06:29:43.788Z,5.93
2022-08-26T06:32:12.945Z,5.75
2022-08-26T06:34:41.800Z,5.63
2022-08-26T06:37:11.611Z,5.53
2022-08-26T06:39:41.091Z,5.50
2022-08-26T06:42:11.058Z,5.47
2022-08-26T06:44:41.696Z,5.68
2022-08-26T06:47:13.240Z,5.32
2022-08-26T06:49:41.778Z,5.57
2022-08-26T06:52:14.139Z,4.97
2022-08-26T06:54:48.548Z,5.20
2022-08-26T06:57:21.098Z,5.38
2022-08-26T06:59:51.125Z,5.70
2022-08-26T07:02:20.750Z,5.22
2022-08-26T07:04:51.157Z,5.75
2022-08-26T07:07:21.625Z,5.13
2022-08-26T07:09:52.433Z,5.20
2022-08-26T07:12:21.499Z,5.28
2022-08-26T07:14:50.176Z,5.30
2022-08-26T07:17:19.421Z,5.68
2022-08-26T07:19:49.223Z,5.95
2022-08-26T07:22:20.496Z,5.70
2022-08-26T07:24:49.685Z,5.50
2022-08-26T07:27:18.210Z,6.07
2022-08-26T07:29:46.852Z,4.93
2022-08-26T07:32:16.145Z,5.25
2022-08-26T07:34:44.749Z,5.72
2022-08-26T07:37:13.211Z,5.00
2022-08-26T07:39:43.389Z,5.22
2022-08-26T07:42:13.376Z,5.20
2022-08-26T07:44:42.734Z,5.75
2022-08-26T07:47:24.860Z,5.70
2022-08-26T07:49:55.230Z,5.20
2022-08-26T07:52:26.679Z,18.95
2022-08-26T07:54:58.248Z,12.57
2022-08-26T07:57:27.186Z,8.75
2022-08-26T07:59:55.763Z,6.93
2022-08-26T08:02:24.373Z,6.63
2022-08-26T08:04:53.092Z,6.68
2022-08-26T08:07:38.317Z,6.43
2022-08-26T08:10:13.689Z,6.50
2022-08-26T08:12:42.512Z,6.22
2022-08-26T08:15:13.854Z,6.35
2022-08-26T08:17:42.926Z,5.93
2022-08-26T08:20:12.457Z,5.97
2022-08-26T08:22:41.100Z,6.40
2022-08-26T08:25:11.312Z,6.18
2022-08-26T08:27:40.818Z,5.97
2022-08-26T08:30:13.688Z,5.97
2022-08-26T08:32:43.672Z,6.05
2022-08-26T08:35:13.227Z,6.50
2022-08-26T08:37:42.577Z,6.18
2022-08-26T08:40:13.887Z,6.28
2022-08-26T08:42:47.172Z,6.43
2022-08-26T08:45:19.220Z,6.50
2022-08-26T08:47:50.578Z,5.75
2022-08-26T08:50:26.792Z,6.30
2022-08-26T08:53:13.451Z,5.97
2022-08-26T08:55:57.692Z,6.25
2022-08-26T08:58:36.563Z,5.65
2022-08-26T09:01:07.602Z,6.38
2022-08-26T09:03:46.418Z,5.82
2022-08-26T09:06:18.814Z,5.68
2022-08-26T09:08:50.079Z,5.90
2022-08-26T09:11:20.873Z,5.93
2022-08-26T09:13:51.962Z,5.80
2022-08-26T09:16:23.064Z,5.50
2022-08-26T09:19:06.575Z,5.60
2022-08-26T09:21:35.282Z,5.50
2022-08-26T09:24:03.961Z,5.95
2022-08-26T09:26:45.623Z,5.18
2022-08-26T09:29:22.244Z,5.43
2022-08-26T09:31:51.033Z,5.57
2022-08-26T09:34:22.233Z,5.10
2022-08-26T09:36:52.015Z,5.25
2022-08-26T09:39:33.521Z,5.57
2022-08-26T09:42:11.714Z,5.40
2022-08-26T09:44:57.746Z,5.18
2022-08-26T09:47:30.284Z,5.05
2022-08-26T09:50:09.852Z,5.70
2022-08-26T09:52:40.600Z,5.20
2022-08-26T09:55:14.612Z,4.70
2022-08-26T09:57:51.247Z,4.93
2022-08-26T10:00:30.600Z,4.88
2022-08-26T10:02:59.762Z,4.97
2022-08-26T10:05:36.084Z,4.82
2022-08-26T10:08:27.224Z,5.43
2022-08-26T10:10:57.403Z,5.13
2022-08-26T10:13:33.326Z,5.03
2022-08-26T10:16:10.756Z,5.20
2022-08-26T10:18:43.652Z,5.13
2022-08-26T10:21:15.122Z,5.03
2022-08-26T10:23:48.699Z,5.20
2022-08-26T10:26:20.698Z,4.75
2022-08-26T10:28:53.930Z,4.75
2022-08-26T10:31:28.579Z,5.25
2022-08-26T10:34:00.165Z,4.30
2022-08-26T10:37:16.828Z,4.70
2022-08-26T10:39:42.743Z,4.70
2022-08-26T10:42:18.354Z,4.80
2022-08-26T10:44:48.184Z,4.60
2022-08-26T10:47:19.638Z,4.50
2022-08-26T10:49:58.695Z,4.53
2022-08-26T10:53:01.323Z,4.10
2022-08-26T10:55:36.323Z,4.20
2022-08-26T10:58:39.293Z,4.55
2022-08-26T11:01:33.390Z,4.35
2022-08-26T11:04:07.332Z,4.93
2022-08-26T11:06:36.961Z,5.07
2022-08-26T11:09:07.526Z,4.50
2022-08-26T11:11:48.870Z,4.80
2022-08-26T11:14:53.241Z,4.10
2022-08-26T11:18:01.865Z,3.60
2022-08-26T11:20:36.154Z,3.40
2022-08-26T11:23:40.438Z,3.63
2022-08-26T11:26:35.467Z,4.10
2022-08-26T11:29:12.897Z,4.18
2022-08-26T11:31:56.345Z,4.80
2022-08-26T11:34:56.349Z,6.75
2022-08-26T11:37:33.102Z,6.45
2022-08-26T11:40:03.984Z,4.60
2022-08-26T11:42:37.628Z,4.18
2022-08-26T11:45:19.408Z,3.60
2022-08-26T11:47:49.258Z,3.90
2022-08-26T11:50:23.567Z,4.28
2022-08-26T11:53:01.649Z,4.10
2022-08-26T11:55:30.384Z,4.18
2022-08-26T11:58:00.891Z,4.03
2022-08-26T12:00:33.733Z,4.00
2022-08-26T12:03:06.880Z,3.72
2022-08-26T12:05:43.360Z,4.38
2022-08-26T12:08:16.343Z,4.63
2022-08-26T12:10:45.586Z,4.10
2022-08-26T12:13:22.627Z,3.83
2022-08-26T12:15:55.819Z,3.88
2022-08-26T12:18:28.827Z,4.10
2022-08-26T12:21:00.894Z,4.32
2022-08-26T12:23:40.422Z,3.92
2022-08-26T12:26:11.569Z,3.67
2022-08-26T12:28:47.120Z,3.28
2022-08-26T12:31:24.010Z,3.17
2022-08-26T12:33:53.354Z,3.40
2022-08-26T12:36:28.636Z,3.30
2022-08-26T12:38:58.650Z,3.75
2022-08-26T12:41:49.732Z,3.67
2022-08-26T12:44:39.303Z,3.85
2022-08-26T12:47:10.687Z,3.92
2022-08-26T12:49:39.698Z,4.00
2022-08-26T12:52:30.119Z,3.60
2022-08-26T12:55:00.528Z,3.40
2022-08-26T12:57:32.064Z,3.72
2022-08-26T13:00:35.795Z,3.53
2022-08-26T13:03:04.676Z,4.03
2022-08-26T13:05:35.643Z,3.20
2022-08-26T13:08:16.865Z,3.90
2022-08-26T13:10:47.668Z,3.50
2022-08-26T13:13:16.219Z,3.30
2022-08-26T13:15:44.858Z,3.47
2022-08-26T13:18:13.340Z,3.95
2022-08-26T13:20:44.947Z,3.50
2022-08-26T13:23:15.310Z,3.95
2022-08-26T13:25:44.671Z,3.40
2022-08-26T13:28:13.229Z,3.28
2022-08-26T13:30:41.966Z,3.45
2022-08-26T13:33:12.034Z,4.10
2022-08-26T13:35:40.830Z,3.30
2022-08-26T13:38:30.888Z,3.40
2022-08-26T13:41:04.229Z,3.42
2022-08-26T13:43:32.843Z,4.03
2022-08-26T13:46:02.055Z,3.70
2022-08-26T13:48:30.576Z,3.80
2022-08-26T13:50:59.288Z,3.65
2022-08-26T13:53:29.582Z,3.83
2022-08-26T13:55:58.454Z,3.70
2022-08-26T13:58:28.898Z,3.90
2022-08-26T14:00:58.820Z,4.03
2022-08-26T14:03:28.214Z,3.50
2022-08-26T14:05:56.902Z,4.00
2022-08-26T14:08:27.316Z,4.13
2022-08-26T14:10:55.947Z,4.22
2022-08-26T14:13:24.610Z,3.83
2022-08-26T14:15:54.535Z,4.32
2022-08-26T14:18:26.337Z,4.13
2022-08-26T14:20:56.857Z,4.10
2022-08-26T14:23:26.192Z,4.47
2022-08-26T14:25:54.808Z,4.20
2022-08-26T14:28:23.354Z,4.22
2022-08-26T14:30:55.996Z,4.72
2022-08-26T14:33:26.739Z,4.78
2022-08-26T14:36:15.750Z,4.95
2022-08-26T14:38:44.299Z,4.47
2022-08-26T14:41:12.875Z,4.28
2022-08-26T14:43:42.491Z,4.05
2022-08-26T14:46:12.415Z,3.97
2022-08-26T14:48:41.885Z,4.57
2022-08-26T14:51:10.445Z,4.22
2022-08-26T14:53:56.583Z,4.32
2022-08-26T14:56:25.311Z,4.05
2022-08-26T14:58:53.780Z,4.18
2022-08-26T15:01:24.873Z,4.38
2022-08-26T15:03:56.718Z,4.05
2022-08-26T15:06:25.266Z,4.57
2022-08-26T15:08:53.814Z,4.15
2022-08-26T15:11:22.644Z,4.07
2022-08-26T15:13:51.148Z,4.00
2022-08-26T15:16:19.675Z,4.32
2022-08-26T15:18:51.456Z,4.40
2022-08-26T15:21:20.324Z,3.65
2022-08-26T15:23:48.835Z,4.13
2022-08-26T15:26:18.057Z,4.28
2022-08-26T15:28:48.085Z,3.97
2022-08-26T15:31:16.774Z,4.20
2022-08-26T15:33:45.811Z,4.20
2022-08-26T15:36:16.002Z,4.10
2022-08-26T15:38:44.614Z,3.95
2022-08-26T15:41:14.404Z,3.85
2022-08-26T15:43:42.941Z,4.20
2022-08-26T15:46:12.332Z,4.18
2022-08-26T15:48:40.958Z,3.72
2022-08-26T15:51:09.627Z,4.05
2022-08-26T15:53:39.515Z,3.90
2022-08-26T15:56:08.480Z,4.10
2022-08-26T15:58:37.455Z,4.20
2022-08-26T16:01:06.365Z,4.57
2022-08-26T16:03:34.873Z,4.30
2022-08-26T16:06:03.900Z,4.20
2022-08-26T16:08:36.531Z,4.38
2022-08-26T16:11:07.112Z,4.57
2022-08-26T16:13:39.922Z,4.00
2022-08-26T16:16:09.150Z,4.38
2022-08-26T16:18:37.728Z,4.05
2022-08-26T16:21:13.438Z,3.80
2022-08-26T16:23:44.988Z,3.80
2022-08-26T16:26:17.871Z,3.80
2022-08-26T16:28:46.625Z,3.97
2022-08-26T16:31:15.201Z,3.97
2022-08-26T16:33:43.910Z,4.13
2022-08-26T16:36:12.684Z,4.07
2022-08-26T16:38:41.655Z,4.15
2022-08-26T16:41:10.564Z,3.70
2022-08-26T16:43:40.680Z,4.50
2022-08-26T16:46:11.333Z,3.55
2022-08-26T16:48:40.102Z,3.78
2022-08-26T16:51:12.565Z,3.75
2022-08-26T16:53:41.167Z,3.80
2022-08-26T16:56:13.787Z,4.22
2022-08-26T16:58:43.776Z,3.97
2022-08-26T17:01:12.447Z,4.63
2022-08-26T17:03:41.012Z,4.22
2022-08-26T17:06:10.629Z,3.60
2022-08-26T17:08:39.511Z,3.50
2022-08-26T17:11:08.654Z,3.80
2022-08-26T17:13:38.154Z,4.60
2022-08-26T17:16:09.927Z,4.55
2022-08-26T17:18:38.598Z,3.88
2022-08-26T17:21:09.962Z,3.60
2022-08-26T17:23:38.664Z,4.00
2022-08-26T17:26:07.539Z,4.32
2022-08-26T17:28:35.957Z,4.13
2022-08-26T17:31:05.284Z,4.80
2022-08-26T17:33:35.153Z,4.57
2022-08-26T17:36:04.345Z,4.38
2022-08-26T17:38:32.933Z,4.55
2022-08-26T17:41:01.399Z,4.50
2022-08-26T17:43:30.022Z,4.50
2022-08-26T17:46:06.991Z,4.47
2022-08-26T17:48:38.082Z,4.50
2022-08-26T17:51:11.123Z,4.50
2022-08-26T17:53:39.932Z,4.68
2022-08-26T17:56:09.192Z,4.82
2022-08-26T17:58:38.863Z,4.95
2022-08-26T18:01:08.208Z,5.40
2022-08-26T18:03:38.384Z,5.40
2022-08-26T18:06:10.407Z,5.80
2022-08-26T18:08:39.027Z,5.35
2022-08-26T18:11:10.261Z,5.80
2022-08-26T18:13:38.865Z,5.90
2022-08-26T18:16:16.061Z,5.68
2022-08-26T18:18:46.567Z,6.28
2022-08-26T18:21:17.059Z,6.20
2022-08-26T18:23:45.820Z,6.00
2022-08-26T18:26:18.399Z,6.00
2022-08-26T18:28:46.892Z,5.43
2022-08-26T18:31:16.371Z,5.70
2022-08-26T18:33:46.390Z,6.30
2022-08-26T18:36:19.622Z,5.75
2022-08-26T18:38:48.441Z,5.95
2022-08-26T18:41:20.797Z,6.20
2022-08-26T18:43:50.591Z,6.00
2022-08-26T18:46:20.049Z,5.82
2022-08-26T18:48:51.105Z,6.38
2022-08-26T18:51:21.007Z,5.80
2022-08-26T18:53:49.541Z,5.90
2022-08-26T18:56:18.700Z,6.03
2022-08-26T18:58:47.583Z,5.55
2022-08-26T19:01:16.770Z,6.00
2022-08-26T19:03:45.539Z,5.72
2022-08-26T19:06:20.022Z,5.90
2022-08-26T19:08:49.945Z,5.65
2022-08-26T19:11:30.114Z,5.70
2022-08-26T19:14:01.699Z,5.93
2022-08-26T19:16:30.594Z,5.65
2022-08-26T19:19:00.761Z,5.60
2022-08-26T19:21:30.874Z,5.97
2022-08-26T19:23:59.999Z,5.50
2022-08-26T19:26:28.771Z,5.43
2022-08-26T19:28:57.398Z,5.82
2022-08-26T19:31:26.216Z,5.50
2022-08-26T19:33:56.860Z,5.65
2022-08-26T19:36:26.204Z,5.75
2022-08-26T19:38:56.817Z,6.22
2022-08-26T19:41:36.802Z,6.00
2022-08-26T19:44:11.549Z,6.00
2022-08-26T19:46:40.232Z,6.40
2022-08-26T19:49:08.717Z,6.00
2022-08-26T19:51:37.870Z,5.82
2022-08-26T19:54:07.852Z,5.93
2022-08-26T19:56:36.729Z,5.78
2022-08-26T19:59:05.208Z,5.78
2022-08-26T20:01:33.799Z,6.15
2022-08-26T20:04:02.934Z,6.13
2022-08-26T20:06:31.637Z,6.10
2022-08-26T20:09:00.145Z,5.53
2022-08-26T20:11:29.992Z,6.22
2022-08-26T20:13:59.808Z,6.20
2022-08-26T20:16:29.822Z,6.30
2022-08-26T20:19:27.680Z,5.90
2022-08-26T20:21:56.198Z,5.93
2022-08-26T20:24:26.516Z,6.35
2022-08-26T20:26:56.944Z,7.22
2022-08-26T20:29:25.502Z,6.55
2022-08-26T20:31:54.774Z,6.35
2022-08-26T20:34:23.316Z,7.05
2022-08-26T20:36:52.044Z,6.80
2022-08-26T20:39:21.202Z,6.53
2022-08-26T20:41:49.968Z,7.00
2022-08-26T20:44:19.958Z,7.57
2022-08-26T20:46:48.437Z,7.32
2022-08-26T20:49:18.197Z,6.97
2022-08-26T20:51:51.605Z,7.25
2022-08-26T20:54:23.922Z,7.05
2022-08-26T20:56:54.871Z,7.47
2022-08-26T20:59:24.772Z,7.43
2022-08-26T21:01:53.378Z,7.30
2022-08-26T21:04:23.343Z,7.57
2022-08-26T21:06:53.080Z,7.18
2022-08-26T21:09:22.436Z,7.40
2022-08-26T21:11:51.229Z,7.93
2022-08-26T21:14:20.655Z,7.78
2022-08-26T21:16:50.783Z,8.20
2022-08-26T21:19:19.955Z,7.60
2022-08-26T21:21:48.963Z,8.23
2022-08-26T21:24:17.657Z,8.32
2022-08-26T21:26:46.183Z,8.27
2022-08-26T21:29:14.753Z,7.55
2022-08-26T21:31:46.349Z,7.40
2022-08-26T21:34:17.945Z,7.68
2022-08-26T21:36:46.802Z,7.72
2022-08-26T21:39:15.410Z,7.20
2022-08-26T21:41:44.491Z,7.00
2022-08-26T21:44:13.678Z,7.65
2022-08-26T21:46:42.480Z,7.40
2022-08-26T21:49:14.979Z,6.93
2022-08-26T21:51:46.469Z,7.13
2022-08-26T21:54:15.167Z,7.88
2022-08-26T21:56:46.802Z,6.97
2022-08-26T21:59:16.634Z,7.45
2022-08-26T22:01:45.210Z,7.18
2022-08-26T22:04:13.729Z,7.63
2022-08-26T22:06:45.797Z,6.88
2022-08-26T22:09:15.074Z,7.38
2022-08-26T22:11:44.151Z,7.25
2022-08-26T22:14:12.671Z,6.88
2022-08-26T22:16:41.212Z,7.70
2022-08-26T22:19:20.146Z,7.25
2022-08-26T22:21:50.942Z,6.95
2022-08-26T22:24:19.884Z,7.38
2022-08-26T22:26:48.671Z,7.55
2022-08-26T22:29:17.494Z,7.97
2022-08-26T22:31:46.243Z,8.35
2022-08-26T22:34:17.494Z,7.80
2022-08-26T22:36:48.457Z,8.57
2022-08-26T22:39:22.779Z,8.10
2022-08-26T22:41:51.541Z,8.07
2022-08-26T22:44:20.720Z,7.75
2022-08-26T22:46:49.948Z,8.13
2022-08-26T22:49:18.525Z,7.63
2022-08-26T22:51:47.107Z,8.05
2022-08-26T22:54:17.372Z,7.80
2022-08-26T22:56:46.283Z,7.75
2022-08-26T22:59:16.286Z,8.93
2022-08-26T23:01:44.937Z,8.15
2022-08-26T23:04:13.615Z,8.43
2022-08-26T23:06:47.490Z,7.75
2022-08-26T23:09:18.402Z,8.05
2022-08-26T23:11:47.862Z,7.85
2022-08-26T23:14:17.055Z,8.00
2022-08-26T23:16:45.658Z,7.63
2022-08-26T23:19:14.954Z,8.27
2022-08-26T23:21:43.536Z,7.25
2022-08-26T23:24:12.146Z,7.80
2022-08-26T23:26:42.591Z,7.20
2022-08-26T23:29:12.849Z,6.95
2022-08-26T23:31:42.186Z,6.90
2022-08-26T23:34:29.378Z,6.78
2022-08-26T23:36:59.090Z,7.43
2022-08-26T23:39:28.619Z,7.72
2022-08-26T23:41:58.712Z,6.78
2022-08-26T23:44:28.335Z,7.25
2022-08-26T23:46:56.936Z,6.88
2022-08-26T23:49:25.601Z,6.80
2022-08-26T23:52:12.045Z,6.38
2022-08-26T23:54:41.063Z,7.53
2022-08-26T23:57:11.211Z,7.43
2022-08-26T23:59:39.977Z,7.30
